LFQW weather

Aérodrome de Vesoul-Frotey
Vesoul/Frotey, Bourgogne-Franche-Comté, France

Public forecast

Using degrees Celsius for public forecast. Weather courtesy of forecast.io.

Closest aviation weather report (METAR) to Aérodrome de Vesoul-Frotey

Closest report is Luxeuil-Saint-Sauveur (BA 116) Air Base, 10.9 nm (20.1 km) NE. Retrieved 2020/08/04 00:30 UTC (0 seconds ago):

LFSX 040030Z AUTO 32003KT CAVOK 14/10 Q1014

Closest aviation forecast (TAF) to Aérodrome de Vesoul-Frotey

Closest forecast is Luxeuil-Saint-Sauveur (BA 116) Air Base, 10.9 nm (20.1 km) NE. Retrieved 2020/08/03 21:00 UTC (3 hours ago):

TAF LFSX 032000Z 0321/0421 31010KT 9999 BKN050 TEMPO 0412/0418 14015KT SHRA SCT050TCU